Terminal Aerodrome Forecast
Issued by NWS Portland, OR

Home | Current Version | Previous Version | Text Only | Print | Product List | Glossary On
Versions: 1 2 3 4 5 6 7 8 9 10 11 12 13 14 15 16
000
FTUS46 KPQR 201246 AAA
TAFTTD
TAF AMD
KTTD 201246Z 2013/2112 10004KT 6SM -SN SCT050 BKN150
     FM201700 10005KT P6SM VCSH BKN050 OVC150
     FM202300 10007KT P6SM -SNRA SCT025 OVC050
     FM210030 10010KT 3SM -SN SCT015 OVC030
     FM210200 10013KT 1SM -SN SCT008 OVC015
     FM210600 09012KT 5SM -SN SCT015 OVC030=

USA.gov is the U.S. government's official web portal to all federal, state and local government web resources and services.